Darregueira, Argentina
Current Conditions -  °F | °C
As of 10:00 AM on Monday 20 Oct 2014 (Local Time) from SAZN Reporting Station
Clear Clear  
Wind Chill: 64°   Ceiling: Unl
Heat Index: 64°   Visibility: 6mi
Dew Point: 46°   Wind: 3mph
Humidity: 52%   Direction: 230°SW
Pressure: 30"   Gusts: NA
Location:  37.7°S, 63.17°W
Report Text: SAZN 201300Z 23003KT CAVOK 18/08 Q1016
Loading
Personal Weather Stations






























Interactive Weather Map
Tropical Storm Tracking
New forecast layout! Learn more

10-Day Weather Forecast

Advertisements
Track Severe Weather on mobile